Time;durP1;ratioP1;P1;durP2;ratioP2;P2;SDS_P1;SDS_P2;PMS_P1;PMS_P2;Temp;Humidity;BMP_temperature;BMP_pressure;BME280_temperature;BME280_humidity;BME280_pressure;Samples;Min_cycle;Max_cycle;Signal;HPM_P1;HPM_P2
2021/08/06 00:00:35;;;;;;;6.97;5.00;;;19.10;99.90;;;;;;5042856;28;20133;-81
2021/08/06 00:03:02;;;;;;;9.23;5.43;;;19.10;99.90;;;;;;5043426;28;20109;-82
2021/08/06 00:05:29;;;;;;;6.68;5.15;;;19.10;99.90;;;;;;5043927;28;20129;-82
2021/08/06 00:07:56;;;;;;;7.38;4.90;;;19.10;99.90;;;;;;5044304;28;20041;-83
2021/08/06 00:10:23;;;;;;;6.13;4.95;;;19.10;99.90;;;;;;5043814;28;20081;-82
2021/08/06 00:12:51;;;;;;;6.07;4.90;;;19.10;99.90;;;;;;5045059;28;20073;-82
2021/08/06 00:15:18;;;;;;;6.85;5.05;;;19.10;99.90;;;;;;5044496;28;20108;-83
2021/08/06 00:17:45;;;;;;;6.82;4.97;;;19.20;99.90;;;;;;5044063;28;20076;-83
2021/08/06 00:20:12;;;;;;;6.18;5.00;;;19.20;99.90;;;;;;5043559;28;20061;-84
2021/08/06 00:22:39;;;;;;;7.63;4.90;;;19.10;99.90;;;;;;5042886;28;20088;-84
2021/08/06 00:25:07;;;;;;;6.28;5.18;;;19.10;99.90;;;;;;5042258;28;20443;-83
2021/08/06 00:27:34;;;;;;;6.28;4.95;;;19.10;99.90;;;;;;5042798;28;20053;-81
2021/08/06 00:30:02;;;;;;;5.30;4.80;;;19.10;99.90;;;;;;5040528;28;20117;-80
2021/08/06 00:32:29;;;;;;;8.60;5.15;;;19.10;99.90;;;;;;5040011;28;20076;-80
2021/08/06 00:34:56;;;;;;;7.43;5.07;;;19.00;99.90;;;;;;5040433;28;20140;-81
2021/08/06 00:37:23;;;;;;;5.43;4.78;;;19.00;99.90;;;;;;5042043;28;20049;-80
2021/08/06 00:39:50;;;;;;;5.68;5.03;;;19.00;99.90;;;;;;5042448;28;20084;-81
2021/08/06 00:42:17;;;;;;;6.85;4.63;;;18.90;99.90;;;;;;5041474;28;20049;-83
2021/08/06 00:44:44;;;;;;;6.75;4.97;;;18.90;99.90;;;;;;5041265;28;20081;-82
2021/08/06 00:47:13;;;;;;;5.65;4.75;;;18.90;99.90;;;;;;5042320;28;20120;-83
2021/08/06 00:49:40;;;;;;;7.20;5.13;;;18.80;99.90;;;;;;5042389;28;20069;-84
2021/08/06 00:52:07;;;;;;;7.75;4.95;;;18.80;99.90;;;;;;5044571;28;20050;-83
2021/08/06 00:54:34;;;;;;;6.05;5.00;;;18.80;99.90;;;;;;5044588;28;20045;-82
2021/08/06 00:57:01;;;;;;;5.28;4.78;;;18.80;99.90;;;;;;5046574;28;20088;-84
2021/08/06 00:59:28;;;;;;;6.18;4.80;;;18.80;99.90;;;;;;5040311;28;20124;-84
2021/08/06 01:02:04;;;;;;;5.57;4.95;;;18.70;99.90;;;;;;5041446;28;20053;-84
2021/08/06 01:04:41;;;;;;;5.55;5.05;;;18.70;99.90;;;;;;5041223;28;20152;-83
2021/08/06 01:07:14;;;;;;;5.95;5.00;;;18.60;99.90;;;;;;5043612;28;20049;-81
2021/08/06 01:09:45;;;;;;;5.65;4.70;;;18.70;99.90;;;;;;5043549;28;20064;-82
2021/08/06 01:12:19;;;;;;;7.38;4.90;;;18.70;99.90;;;;;;5046048;28;20096;-82
2021/08/06 01:14:49;;;;;;;8.88;5.53;;;18.70;99.90;;;;;;5047116;28;20469;-83
2021/08/06 01:17:16;;;;;;;7.45;5.28;;;18.80;99.90;;;;;;5042928;28;20076;-82
2021/08/06 01:19:55;;;;;;;7.03;5.20;;;18.80;99.90;;;;;;5043169;28;20052;-83
2021/08/06 01:22:27;;;;;;;8.75;5.38;;;18.80;99.90;;;;;;5043494;28;20093;-83
2021/08/06 01:25:06;;;;;;;5.65;5.07;;;18.80;99.90;;;;;;5044386;28;20081;-82
2021/08/06 01:27:36;;;;;;;7.07;4.82;;;18.90;99.90;;;;;;5046670;28;20059;-82
2021/08/06 01:30:06;;;;;;;7.70;5.30;;;18.90;99.90;;;;;;5046540;28;20108;-82
2021/08/06 01:32:33;;;;;;;5.90;5.03;;;18.90;99.90;;;;;;5047103;28;20050;-82
2021/08/06 01:35:01;;;;;;;6.60;4.97;;;18.80;99.90;;;;;;5044896;28;20075;-82
2021/08/06 01:37:28;;;;;;;6.38;5.10;;;18.80;99.90;;;;;;5046176;28;20054;-81
2021/08/06 01:39:55;;;;;;;6.82;5.40;;;18.60;99.90;;;;;;5048247;28;20080;-82
2021/08/06 01:42:31;;;;;;;6.10;5.30;;;18.60;99.90;;;;;;5047873;28;20509;-82
2021/08/06 01:44:59;;;;;;;6.22;5.30;;;18.50;99.90;;;;;;5045244;28;20063;-82
2021/08/06 01:47:33;;;;;;;6.22;5.18;;;18.50;99.90;;;;;;5043677;28;20457;-82
2021/08/06 01:50:03;;;;;;;9.05;5.13;;;18.60;99.90;;;;;;5044516;28;20141;-82
2021/08/06 01:52:33;;;;;;;5.93;5.15;;;18.50;99.90;;;;;;5044255;28;20068;-83
2021/08/06 01:55:11;;;;;;;7.07;5.10;;;18.50;99.90;;;;;;5043212;28;20056;-82
2021/08/06 01:57:40;;;;;;;7.00;5.30;;;18.50;99.90;;;;;;5043652;28;20064;-82
2021/08/06 02:00:12;;;;;;;6.55;4.93;;;18.50;99.90;;;;;;5043037;28;20731;-83
2021/08/06 02:02:41;;;;;;;5.28;4.78;;;18.50;99.90;;;;;;5043020;28;20049;-82
2021/08/06 02:05:10;;;;;;;8.10;4.90;;;18.40;99.90;;;;;;5043066;28;20049;-83
2021/08/06 02:07:37;;;;;;;6.10;5.30;;;18.50;99.90;;;;;;5048767;28;20084;-82
2021/08/06 02:10:05;;;;;;;5.93;5.03;;;18.50;99.90;;;;;;5050775;28;20069;-80
2021/08/06 02:12:34;;;;;;;6.10;5.03;;;18.60;99.90;;;;;;5050751;28;20053;-82
2021/08/06 02:15:01;;;;;;;6.03;5.35;;;18.60;99.90;;;;;;5047580;28;20049;-82
2021/08/06 02:17:30;;;;;;;6.80;5.30;;;18.70;99.90;;;;;;5042614;28;20112;-84
2021/08/06 02:19:58;;;;;;;6.18;4.97;;;18.70;99.90;;;;;;5041085;28;20441;-82
2021/08/06 02:22:26;;;;;;;8.50;5.22;;;18.80;99.90;;;;;;5042406;28;20056;-83
2021/08/06 02:24:54;;;;;;;7.03;4.97;;;18.80;99.90;;;;;;5041200;28;20501;-83
2021/08/06 02:27:23;;;;;;;8.25;5.25;;;18.80;99.90;;;;;;5041786;28;20615;-83
2021/08/06 02:29:53;;;;;;;6.82;5.15;;;18.70;99.90;;;;;;5039534;28;20041;-82
2021/08/06 02:32:20;;;;;;;8.25;5.55;;;18.70;99.90;;;;;;5040588;28;20129;-82
2021/08/06 02:34:50;;;;;;;7.35;5.40;;;18.70;99.90;;;;;;5040932;28;20068;-82
2021/08/06 02:37:17;;;;;;;8.95;5.90;;;18.70;99.90;;;;;;5045411;28;20057;-83
2021/08/06 02:39:44;;;;;;;9.93;5.95;;;18.60;99.90;;;;;;5049960;28;20057;-82
2021/08/06 02:42:11;;;;;;;10.00;6.28;;;18.60;99.90;;;;;;5044060;28;20494;-84
2021/08/06 02:44:39;;;;;;;7.88;5.88;;;18.50;99.90;;;;;;5041149;28;20084;-81
2021/08/06 02:47:08;;;;;;;9.68;5.60;;;18.50;99.90;;;;;;5046456;28;20050;-80
2021/08/06 02:49:36;;;;;;;9.25;5.50;;;18.50;99.90;;;;;;5046334;28;20068;-81
2021/08/06 02:52:06;;;;;;;9.00;6.15;;;18.50;99.90;;;;;;5044960;28;20119;-80
2021/08/06 02:54:34;;;;;;;8.73;6.20;;;18.50;99.90;;;;;;5049446;28;20061;-82
2021/08/06 02:57:01;;;;;;;8.38;5.55;;;18.50;99.90;;;;;;5049794;28;20080;-83
2021/08/06 02:59:28;;;;;;;7.50;5.53;;;18.40;99.90;;;;;;5051427;28;20072;-81
2021/08/06 03:01:55;;;;;;;7.03;5.75;;;18.40;99.90;;;;;;5050107;28;20049;-80
2021/08/06 03:04:22;;;;;;;7.45;5.90;;;18.30;99.90;;;;;;5046491;28;20081;-82
2021/08/06 03:06:49;;;;;;;7.72;5.72;;;18.30;99.90;;;;;;5037586;28;20045;-82
2021/08/06 03:09:17;;;;;;;7.00;6.15;;;18.20;99.90;;;;;;5043204;28;20072;-81
2021/08/06 03:11:44;;;;;;;8.70;6.18;;;18.20;99.90;;;;;;5042073;28;20081;-82
2021/08/06 03:14:11;;;;;;;7.40;6.20;;;18.10;99.90;;;;;;5040477;28;20089;-82
2021/08/06 03:16:37;;;;;;;8.70;6.70;;;18.10;99.90;;;;;;5040110;28;20088;-82
2021/08/06 03:19:04;;;;;;;12.25;6.60;;;18.10;99.90;;;;;;5054943;28;20049;-82
2021/08/06 03:21:31;;;;;;;13.45;6.35;;;18.00;99.90;;;;;;5058245;28;20044;-82
2021/08/06 03:23:58;;;;;;;10.38;5.75;;;17.90;99.90;;;;;;5058320;28;20445;-83
2021/08/06 03:26:26;;;;;;;8.60;5.97;;;17.90;99.90;;;;;;5059046;28;20101;-84
2021/08/06 03:28:53;;;;;;;7.93;5.90;;;17.80;99.90;;;;;;5059022;28;20088;-83
2021/08/06 03:31:20;;;;;;;9.70;6.35;;;17.70;99.90;;;;;;5048565;28;20092;-84
2021/08/06 03:33:47;;;;;;;8.85;6.15;;;17.80;99.90;;;;;;5044258;28;20133;-82
2021/08/06 03:36:14;;;;;;;8.88;6.13;;;17.70;99.90;;;;;;5043860;28;20429;-82
2021/08/06 03:38:41;;;;;;;8.15;5.90;;;17.70;99.90;;;;;;5043254;28;20045;-82
2021/08/06 03:41:08;;;;;;;7.20;6.22;;;17.70;99.90;;;;;;5042958;28;20502;-83
2021/08/06 03:43:37;;;;;;;8.75;6.20;;;17.70;99.90;;;;;;5041838;28;20053;-82
2021/08/06 03:46:04;;;;;;;8.18;5.88;;;17.80;99.90;;;;;;5040823;28;20045;-81
2021/08/06 03:48:31;;;;;;;8.45;5.97;;;17.70;99.90;;;;;;5041266;28;20140;-83
2021/08/06 03:50:58;;;;;;;7.35;5.90;;;17.70;99.90;;;;;;5041519;28;20057;-82
2021/08/06 03:53:25;;;;;;;9.85;6.20;;;17.70;99.90;;;;;;5042120;28;20075;-83
2021/08/06 03:56:26;;;;;;;9.73;5.97;;;17.70;99.90;;;;;;5044386;28;20046;-83
2021/08/06 03:58:59;;;;;;;7.95;6.55;;;17.70;99.90;;;;;;5042310;28;20045;-82
2021/08/06 04:01:35;;;;;;;9.20;6.22;;;17.70;99.90;;;;;;5040384;28;20072;-82
2021/08/06 04:04:14;;;;;;;8.52;6.00;;;17.70;99.90;;;;;;5038927;28;20069;-80
2021/08/06 04:06:47;;;;;;;7.63;6.13;;;17.70;99.90;;;;;;5041302;28;20053;-82
2021/08/06 04:09:30;;;;;;;9.73;6.32;;;17.70;99.90;;;;;;5041269;28;20072;-83
2021/08/06 04:12:10;;;;;;;9.00;6.10;;;17.70;99.90;;;;;;5041672;28;20064;-82
2021/08/06 04:15:36;;;;;;;11.25;6.53;;;17.70;99.90;;;;;;5044317;23;20068;-82
2021/08/06 04:22:27;;;;;;;8.07;6.43;;;17.70;99.90;;;;;;4958749;29;20056;-82
2021/08/06 04:24:55;;;;;;;9.05;6.97;;;17.70;99.90;;;;;;4929193;28;20500;-82
2021/08/06 04:27:25;;;;;;;10.02;6.97;;;17.60;99.90;;;;;;4998467;28;20074;-82
2021/08/06 04:29:52;;;;;;;8.00;6.85;;;17.60;99.90;;;;;;5000998;28;20078;-82
2021/08/06 04:32:19;;;;;;;7.10;6.35;;;17.60;99.90;;;;;;5029227;28;20092;-82
2021/08/06 04:34:46;;;;;;;7.93;6.30;;;17.60;99.90;;;;;;5040301;28;20711;-82
2021/08/06 04:37:13;;;;;;;9.32;6.60;;;17.70;99.90;;;;;;5044393;28;20080;-83
2021/08/06 04:39:40;;;;;;;9.55;7.00;;;17.80;99.90;;;;;;5045964;28;20077;-82
2021/08/06 04:42:10;;;;;;;10.85;7.35;;;17.90;99.90;;;;;;5049513;28;20063;-81
2021/08/06 04:44:38;;;;;;;8.15;6.90;;;17.90;99.90;;;;;;5051460;28;20049;-81
2021/08/06 04:47:06;;;;;;;11.10;6.63;;;18.00;99.90;;;;;;5049009;28;20072;-82
2021/08/06 04:49:33;;;;;;;8.50;6.63;;;18.00;99.90;;;;;;5040384;28;20041;-81
2021/08/06 04:52:00;;;;;;;9.10;6.57;;;18.10;99.90;;;;;;5041536;28;20087;-81
2021/08/06 04:54:27;;;;;;;8.98;6.18;;;18.10;99.90;;;;;;5040160;28;20573;-81
2021/08/06 04:56:54;;;;;;;8.35;6.13;;;18.10;99.90;;;;;;5050401;28;20060;-80
2021/08/06 04:59:22;;;;;;;10.40;6.65;;;18.10;99.90;;;;;;5048951;28;20084;-82
2021/08/06 05:01:49;;;;;;;10.43;6.63;;;18.00;99.90;;;;;;5042356;28;20073;-82
2021/08/06 05:04:16;;;;;;;7.95;6.82;;;17.90;99.90;;;;;;5039837;28;20548;-81
2021/08/06 05:06:43;;;;;;;9.98;6.60;;;17.90;99.90;;;;;;5040704;28;20049;-82
2021/08/06 05:09:10;;;;;;;9.00;6.03;;;17.90;99.90;;;;;;5039514;28;20088;-81
2021/08/06 05:11:37;;;;;;;6.55;5.85;;;17.90;99.90;;;;;;5038985;28;20083;-81
2021/08/06 05:14:04;;;;;;;8.63;6.72;;;18.00;99.90;;;;;;5038454;28;20085;-82
2021/08/06 05:16:33;;;;;;;8.85;6.20;;;18.00;99.90;;;;;;5037663;28;20137;-82
2021/08/06 05:19:00;;;;;;;10.80;6.25;;;18.00;99.90;;;;;;5039590;28;20053;-83
2021/08/06 05:21:27;;;;;;;7.72;6.35;;;18.00;99.90;;;;;;5038614;28;20108;-82
2021/08/06 05:23:54;;;;;;;8.32;6.00;;;18.00;99.90;;;;;;5042718;28;20072;-80
2021/08/06 05:26:21;;;;;;;7.93;5.88;;;18.10;99.90;;;;;;5049523;28;20052;-79
2021/08/06 05:28:47;;;;;;;9.93;6.50;;;18.10;99.90;;;;;;5049509;28;20053;-81
2021/08/06 05:31:14;;;;;;;8.23;6.38;;;18.20;99.90;;;;;;5040459;28;20108;-81
2021/08/06 05:33:42;;;;;;;8.02;6.40;;;18.10;99.90;;;;;;5039190;28;20092;-81
2021/08/06 05:36:09;;;;;;;9.77;6.45;;;18.20;99.90;;;;;;5050951;22;20136;-77
2021/08/06 05:38:36;;;;;;;8.30;5.93;;;18.10;99.90;;;;;;5032974;28;20128;-76
2021/08/06 05:41:03;;;;;;;8.55;6.28;;;18.00;99.90;;;;;;5033222;28;20597;-76
2021/08/06 05:43:30;;;;;;;10.30;7.00;;;18.00;99.90;;;;;;5033336;28;20053;-76
2021/08/06 05:45:57;;;;;;;8.35;6.38;;;18.00;99.90;;;;;;5034110;28;20045;-77
2021/08/06 05:48:24;;;;;;;9.02;6.70;;;18.00;99.90;;;;;;5033486;28;20144;-77
2021/08/06 05:50:52;;;;;;;8.70;6.82;;;18.10;99.90;;;;;;5034083;28;20132;-77
2021/08/06 05:53:19;;;;;;;7.57;6.63;;;18.10;99.90;;;;;;5034276;28;20049;-77
2021/08/06 05:55:46;;;;;;;8.02;7.18;;;18.10;99.90;;;;;;5034102;28;20072;-77
2021/08/06 05:58:13;;;;;;;10.30;7.10;;;18.00;99.90;;;;;;5033683;28;20046;-77
2021/08/06 06:00:40;;;;;;;11.60;7.10;;;18.00;99.90;;;;;;5033448;28;20413;-77
2021/08/06 06:03:07;;;;;;;9.40;7.30;;;18.10;99.90;;;;;;5033201;28;20216;-76
2021/08/06 06:05:33;;;;;;;9.63;6.82;;;18.10;99.90;;;;;;5033141;28;20055;-76
2021/08/06 06:08:02;;;;;;;8.15;6.85;;;18.10;99.90;;;;;;5032582;28;20469;-76
2021/08/06 06:10:29;;;;;;;11.65;7.45;;;18.20;99.90;;;;;;5033225;28;20045;-75
2021/08/06 06:12:56;;;;;;;8.75;6.97;;;18.20;99.90;;;;;;5032980;28;20059;-74
2021/08/06 06:15:23;;;;;;;8.60;7.03;;;18.30;99.90;;;;;;5032891;28;20065;-76
2021/08/06 06:17:50;;;;;;;8.48;6.88;;;18.40;99.90;;;;;;5033219;28;20148;-76
2021/08/06 06:20:18;;;;;;;10.35;6.55;;;18.50;99.90;;;;;;5032971;28;20136;-77
2021/08/06 06:22:45;;;;;;;9.65;6.25;;;18.50;99.90;;;;;;5032529;28;20105;-77
2021/08/06 06:25:14;;;;;;;9.82;6.93;;;18.50;99.90;;;;;;5032858;28;20479;-78
2021/08/06 06:27:52;;;;;;;9.30;5.88;;;18.50;99.90;;;;;;5033464;28;20095;-77
2021/08/06 06:30:20;;;;;;;7.10;6.10;;;18.50;99.90;;;;;;5033091;28;20105;-76
2021/08/06 06:32:47;;;;;;;8.73;6.65;;;18.50;99.90;;;;;;5032096;28;20478;-76
2021/08/06 06:35:14;;;;;;;7.55;6.32;;;18.60;99.90;;;;;;5032483;28;20136;-76
2021/08/06 06:37:41;;;;;;;9.15;6.55;;;18.60;99.90;;;;;;5032855;28;20828;-77
2021/08/06 06:40:09;;;;;;;9.02;7.18;;;18.50;99.90;;;;;;5033575;28;20049;-75
2021/08/06 06:42:37;;;;;;;8.30;6.45;;;18.60;99.90;;;;;;5037111;28;20451;-76
2021/08/06 06:45:05;;;;;;;8.00;6.28;;;18.70;99.90;;;;;;5036653;28;20072;-75
2021/08/06 06:47:37;;;;;;;8.63;6.25;;;18.80;99.90;;;;;;5036594;28;20084;-76
2021/08/06 06:50:05;;;;;;;7.65;6.20;;;18.90;99.90;;;;;;5035275;28;20071;-77
2021/08/06 06:52:32;;;;;;;9.63;6.57;;;19.00;99.90;;;;;;5033498;28;20140;-75
2021/08/06 06:54:59;;;;;;;8.55;6.28;;;19.20;99.90;;;;;;5036125;28;20143;-76
2021/08/06 06:57:26;;;;;;;10.10;6.80;;;19.30;99.90;;;;;;5036684;28;20060;-77
2021/08/06 06:59:55;;;;;;;11.35;6.75;;;19.40;99.90;;;;;;5036023;28;20068;-76
2021/08/06 07:02:22;;;;;;;10.70;6.47;;;19.60;99.90;;;;;;5036275;28;20065;-77
2021/08/06 07:04:49;;;;;;;8.48;6.03;;;19.80;99.90;;;;;;5035660;28;20053;-76
2021/08/06 07:07:16;;;;;;;10.30;6.57;;;20.00;99.90;;;;;;5036661;28;20135;-77
2021/08/06 07:09:43;;;;;;;8.68;5.78;;;20.20;99.90;;;;;;5037096;28;20055;-78
2021/08/06 07:12:10;;;;;;;7.57;5.30;;;20.20;99.90;;;;;;5036844;28;20049;-78
2021/08/06 07:14:36;;;;;;;8.48;5.75;;;20.30;99.90;;;;;;5036861;28;20081;-79
2021/08/06 07:17:05;;;;;;;7.82;5.50;;;20.20;99.90;;;;;;5036402;28;20053;-79
2021/08/06 07:19:32;;;;;;;10.55;6.03;;;20.10;99.90;;;;;;5036869;28;20136;-77
2021/08/06 07:21:58;;;;;;;7.47;5.40;;;19.90;99.90;;;;;;5036754;28;20049;-79
2021/08/06 07:24:25;;;;;;;9.43;5.90;;;19.90;99.90;;;;;;5039475;28;20056;-79
2021/08/06 07:26:52;;;;;;;8.98;5.30;;;19.90;99.90;;;;;;5037029;28;20129;-78
2021/08/06 07:29:19;;;;;;;12.43;4.95;;;20.10;99.90;;;;;;5035583;28;20095;-77
2021/08/06 07:31:46;;;;;;;8.07;5.22;;;20.20;99.90;;;;;;5035813;28;20046;-77
2021/08/06 07:34:14;;;;;;;7.75;5.07;;;20.40;99.90;;;;;;5035721;28;20076;-78
2021/08/06 07:36:44;;;;;;;5.78;4.38;;;20.50;99.90;;;;;;5034941;28;20136;-77
2021/08/06 07:39:11;;;;;;;6.78;4.55;;;20.70;99.90;;;;;;5035827;28;20136;-77
2021/08/06 07:41:38;;;;;;;7.55;4.38;;;20.80;99.90;;;;;;5036313;28;20112;-78
2021/08/06 07:44:05;;;;;;;6.30;3.95;;;20.80;99.90;;;;;;5035160;28;20084;-77
2021/08/06 07:46:32;;;;;;;8.93;4.18;;;20.90;99.90;;;;;;5035374;28;20136;-77
2021/08/06 07:48:59;;;;;;;9.23;3.60;;;21.00;99.90;;;;;;5035008;28;20502;-77
2021/08/06 07:51:27;;;;;;;6.10;3.75;;;20.90;99.90;;;;;;5034925;28;20120;-77
2021/08/06 07:53:54;;;;;;;5.60;3.00;;;20.90;99.90;;;;;;5034645;28;20549;-77
2021/08/06 07:56:21;;;;;;;5.35;3.10;;;21.00;99.90;;;;;;5035198;28;20474;-78
2021/08/06 07:58:48;;;;;;;4.40;2.88;;;21.00;99.90;;;;;;5034837;28;20129;-77
2021/08/06 08:01:15;;;;;;;4.00;2.63;;;21.10;99.90;;;;;;5035970;28;20140;-77
2021/08/06 08:03:42;;;;;;;3.20;2.90;;;21.10;99.90;;;;;;5035289;28;20092;-77
2021/08/06 08:06:08;;;;;;;3.13;2.47;;;21.00;99.90;;;;;;5034807;28;20128;-78
2021/08/06 08:08:37;;;;;;;3.78;2.83;;;21.00;99.90;;;;;;5034500;28;20430;-79
2021/08/06 08:11:04;;;;;;;4.25;2.78;;;21.00;99.90;;;;;;5034765;28;20130;-77
2021/08/06 08:13:31;;;;;;;4.15;2.55;;;21.10;99.90;;;;;;5034905;28;20065;-77
2021/08/06 08:15:57;;;;;;;2.70;2.42;;;21.20;99.90;;;;;;5035351;28;20491;-78
2021/08/06 08:18:24;;;;;;;2.78;2.50;;;21.60;99.90;;;;;;5034668;28;20140;-76
2021/08/06 08:20:51;;;;;;;3.25;2.95;;;22.00;99.90;;;;;;5035126;28;20045;-77
2021/08/06 08:23:19;;;;;;;5.25;2.88;;;22.30;99.90;;;;;;5035348;28;20053;-78
2021/08/06 08:25:49;;;;;;;5.07;2.83;;;22.40;99.90;;;;;;5034851;28;20525;-77
2021/08/06 08:28:16;;;;;;;8.25;5.38;;;22.00;99.90;;;;;;5035251;28;20049;-77
2021/08/06 08:30:43;;;;;;;10.15;5.63;;;21.00;99.90;;;;;;5035067;28;20128;-77
2021/08/06 08:33:10;;;;;;;10.02;5.60;;;20.20;99.90;;;;;;5034755;28;20060;-76
2021/08/06 08:35:37;;;;;;;10.18;6.00;;;19.40;99.90;;;;;;5034760;28;20050;-78
2021/08/06 08:39:00;;;;;;;9.93;4.88;;;18.90;99.90;;;;;;5034677;28;20053;-77
2021/08/06 08:41:29;;;;;;;7.50;4.60;;;18.40;99.90;;;;;;5034658;28;20124;-78
2021/08/06 08:43:57;;;;;;;6.78;4.18;;;18.20;99.90;;;;;;5036985;28;20053;-76
2021/08/06 08:46:26;;;;;;;5.78;3.83;;;18.00;99.90;;;;;;5036957;28;20045;-78
2021/08/06 08:48:56;;;;;;;5.45;4.00;;;17.90;99.90;;;;;;5036426;28;20049;-77
2021/08/06 08:51:25;;;;;;;5.22;3.78;;;17.90;99.90;;;;;;5035973;28;20084;-77
2021/08/06 08:53:52;;;;;;;6.75;4.10;;;17.90;99.90;;;;;;5034775;28;20085;-77
2021/08/06 08:56:18;;;;;;;6.85;3.80;;;17.90;99.90;;;;;;5035678;28;20073;-77
2021/08/06 08:58:47;;;;;;;6.40;3.70;;;18.10;99.90;;;;;;5034796;28;20057;-77
2021/08/06 09:01:15;;;;;;;8.70;4.00;;;18.20;99.90;;;;;;5034527;28;20136;-77
2021/08/06 09:03:46;;;;;;;4.80;3.67;;;18.30;99.90;;;;;;5033092;28;20095;-79
2021/08/06 09:06:13;;;;;;;5.45;3.58;;;18.40;99.90;;;;;;5045421;28;20050;-79
2021/08/06 09:08:40;;;;;;;5.45;4.32;;;18.60;99.90;;;;;;5043499;28;20052;-79
2021/08/06 09:11:36;;;;;;;6.15;3.42;;;18.60;99.90;;;;;;5047983;28;20076;-80
2021/08/06 09:14:24;;;;;;;5.28;3.50;;;18.80;99.90;;;;;;5050032;28;20060;-79
2021/08/06 09:17:00;;;;;;;7.28;3.80;;;18.90;99.90;;;;;;5042686;28;20065;-80
2021/08/06 09:19:29;;;;;;;5.85;3.67;;;19.10;99.90;;;;;;5041592;28;20106;-79
2021/08/06 09:22:15;;;;;;;3.85;3.17;;;19.30;99.90;;;;;;5038222;28;20060;-79
2021/08/06 09:25:07;;;;;;;6.88;3.80;;;19.50;99.90;;;;;;5041230;28;20053;-79
2021/08/06 09:27:36;;;;;;;5.68;3.67;;;19.60;99.90;;;;;;5042657;28;20065;-79
2021/08/06 09:30:08;;;;;;;5.97;3.80;;;19.60;99.90;;;;;;5043980;28;20536;-79
2021/08/06 09:32:53;;;;;;;5.72;3.50;;;19.60;99.90;;;;;;5044328;28;20061;-79
2021/08/06 09:35:22;;;;;;;6.53;4.22;;;19.70;99.90;;;;;;5042076;28;20049;-79
2021/08/06 09:37:49;;;;;;;6.97;4.20;;;19.70;99.90;;;;;;5042245;28;20091;-79
2021/08/06 09:40:19;;;;;;;6.15;3.60;;;19.70;99.90;;;;;;5040690;28;20053;-78
2021/08/06 09:42:56;;;;;;;4.95;3.80;;;19.90;99.90;;;;;;5041175;28;20083;-78
2021/08/06 09:45:27;;;;;;;6.95;4.10;;;20.20;99.90;;;;;;5037370;28;20438;-79
2021/08/06 09:47:58;;;;;;;10.02;4.13;;;20.40;99.90;;;;;;5031913;28;20084;-77
2021/08/06 09:50:32;;;;;;;5.90;3.95;;;20.70;99.90;;;;;;5041375;28;20053;-79
2021/08/06 09:53:00;;;;;;;4.47;3.70;;;21.00;99.90;;;;;;5037887;28;20395;-78
2021/08/06 09:55:30;;;;;;;5.75;3.90;;;21.20;99.90;;;;;;5038338;28;20068;-80
2021/08/06 09:57:58;;;;;;;7.97;3.95;;;21.40;99.90;;;;;;5045909;28;20053;-81
2021/08/06 10:00:28;;;;;;;5.68;3.63;;;21.40;99.90;;;;;;5044896;28;20049;-80
2021/08/06 10:02:56;;;;;;;7.93;3.78;;;21.50;99.90;;;;;;5033695;28;20056;-78
2021/08/06 10:05:24;;;;;;;8.70;3.95;;;21.70;99.90;;;;;;5043815;28;20111;-79
2021/08/06 10:07:53;;;;;;;8.20;4.18;;;21.70;99.90;;;;;;5047883;28;20050;-79
2021/08/06 10:10:22;;;;;;;8.68;3.85;;;21.90;99.90;;;;;;5042048;28;20056;-78
2021/08/06 10:12:50;;;;;;;7.32;3.90;;;22.00;99.90;;;;;;5033638;28;20065;-78
2021/08/06 10:15:19;;;;;;;6.95;4.05;;;22.20;99.90;;;;;;5033797;28;20454;-78
2021/08/06 10:17:48;;;;;;;6.25;3.60;;;22.50;99.90;;;;;;5036661;28;20053;-77
2021/08/06 10:20:20;;;;;;;5.30;3.72;;;22.70;99.90;;;;;;5034212;28;20077;-79
2021/08/06 10:22:47;;;;;;;6.47;3.50;;;22.80;99.90;;;;;;5033088;28;20052;-77
2021/08/06 10:25:16;;;;;;;6.05;3.40;;;22.90;99.90;;;;;;5032540;28;20494;-76
2021/08/06 10:27:46;;;;;;;7.25;3.97;;;23.00;99.90;;;;;;5033924;28;20049;-76
2021/08/06 10:30:23;;;;;;;5.38;3.42;;;23.10;99.90;;;;;;5032911;28;20220;-77
2021/08/06 10:35:48;;;;;;;5.82;3.63;;;23.20;99.90;;;;;;5158958;27;20429;-74
2021/08/06 10:38:16;;;;;;;7.65;3.53;;;23.20;99.90;;;;;;5131062;27;20051;-76
2021/08/06 10:41:13;;;;;;;8.15;4.00;;;23.20;99.90;;;;;;5131158;27;20051;-76
2021/08/06 10:44:13;;;;;;;6.30;3.63;;;23.40;99.90;;;;;;5133646;27;20070;-75
2021/08/06 10:46:57;;;;;;;7.10;3.80;;;23.60;99.90;;;;;;5134400;27;20082;-76
2021/08/06 10:49:25;;;;;;;3.85;3.45;;;23.60;99.90;;;;;;5158113;22;20067;-85
2021/08/06 10:52:15;;;;;;;4.85;3.25;;;23.40;99.90;;;;;;5164407;27;20038;-84
2021/08/06 10:54:42;;;;;;;5.28;3.13;;;23.50;99.90;;;;;;5164771;27;20054;-84
2021/08/06 10:57:22;;;;;;;5.07;3.28;;;23.50;99.90;;;;;;5165918;27;20051;-83
2021/08/06 10:59:50;;;;;;;6.20;3.63;;;23.40;99.90;;;;;;5163810;27;20107;-83
2021/08/06 11:02:51;;;;;;;5.88;3.35;;;23.20;99.90;;;;;;5163538;27;20085;-83
2021/08/06 11:05:43;;;;;;;4.30;3.40;;;23.00;99.90;;;;;;5164812;27;20035;-83
2021/08/06 11:08:55;;;;;;;4.95;3.55;;;22.80;99.90;;;;;;5160965;27;20074;-84
2021/08/06 11:11:47;;;;;;;5.30;3.10;;;22.70;99.90;;;;;;5160682;27;20051;-81
2021/08/06 11:14:15;;;;;;;5.25;3.22;;;22.60;99.90;;;;;;5158853;27;20086;-84
2021/08/06 11:17:01;;;;;;;6.43;3.30;;;22.50;99.90;;;;;;5158674;27;20074;-83
2021/08/06 11:19:29;;;;;;;4.57;3.60;;;22.30;99.90;;;;;;5160602;27;20058;-82
2021/08/06 11:21:56;;;;;;;7.75;4.03;;;22.10;99.90;;;;;;5163880;27;20043;-83
2021/08/06 11:24:23;;;;;;;7.28;3.85;;;22.00;99.90;;;;;;5161495;27;20078;-80
2021/08/06 11:26:52;;;;;;;4.25;3.10;;;22.00;99.90;;;;;;5162114;27;20050;-82
2021/08/06 11:29:20;;;;;;;6.55;3.45;;;22.10;99.90;;;;;;5161971;27;20043;-83
2021/08/06 11:32:00;;;;;;;5.03;3.22;;;21.90;99.90;;;;;;5161793;27;20039;-83
2021/08/06 11:34:27;;;;;;;4.22;3.10;;;21.60;99.90;;;;;;5140317;28;20043;-84
2021/08/06 11:36:59;;;;;;;5.55;3.15;;;21.20;99.90;;;;;;5140842;28;20055;-85
2021/08/06 11:39:26;;;;;;;8.02;3.53;;;20.80;99.90;;;;;;5145163;28;20054;-82
2021/08/06 11:41:56;;;;;;;5.60;3.33;;;20.40;99.90;;;;;;5141398;27;20125;-83
2021/08/06 11:44:23;;;;;;;4.50;3.10;;;20.10;99.90;;;;;;5142310;28;20067;-82
2021/08/06 11:46:51;;;;;;;4.45;3.13;;;20.00;99.90;;;;;;5128717;28;20048;-83
2021/08/06 11:49:18;;;;;;;5.28;3.30;;;20.00;99.90;;;;;;5126371;28;20051;-82
2021/08/06 11:51:50;;;;;;;5.57;3.17;;;20.10;99.90;;;;;;5124485;28;20495;-82
2021/08/06 11:54:17;;;;;;;3.03;2.40;;;20.20;99.90;;;;;;5123829;28;20100;-82
2021/08/06 11:56:46;;;;;;;2.58;2.38;;;20.40;99.90;;;;;;5124275;28;20047;-83
2021/08/06 11:59:15;;;;;;;2.85;2.38;;;20.50;99.90;;;;;;5123861;28;20047;-84
2021/08/06 12:01:41;;;;;;;3.42;2.35;;;20.60;99.90;;;;;;5122506;28;20051;-83
2021/08/06 12:04:08;;;;;;;6.20;2.30;;;20.80;99.90;;;;;;5133296;28;20051;-83
2021/08/06 12:06:45;;;;;;;4.68;2.42;;;21.10;99.90;;;;;;5138550;28;20038;-83
2021/08/06 12:09:12;;;;;;;4.72;2.78;;;21.30;99.90;;;;;;5139966;28;20039;-83
2021/08/06 12:11:45;;;;;;;2.40;2.20;;;21.50;99.90;;;;;;5139519;28;20031;-84
2021/08/06 12:14:25;;;;;;;3.42;2.25;;;21.70;99.90;;;;;;5139071;28;20036;-82
2021/08/06 12:16:52;;;;;;;2.90;2.60;;;21.90;99.90;;;;;;5134902;28;20052;-85
2021/08/06 12:19:19;;;;;;;3.33;2.25;;;22.00;99.90;;;;;;5130138;28;20580;-83
2021/08/06 12:21:48;;;;;;;5.57;2.70;;;22.00;99.90;;;;;;5132149;28;20047;-82
2021/08/06 12:24:18;;;;;;;3.60;2.22;;;22.10;99.90;;;;;;5131907;28;20051;-84
2021/08/06 12:26:48;;;;;;;4.45;2.70;;;22.20;99.90;;;;;;5133290;28;20052;-84
2021/08/06 12:29:18;;;;;;;2.78;2.45;;;22.30;99.90;;;;;;5132896;28;20051;-83
2021/08/06 12:31:54;;;;;;;4.10;2.60;;;22.40;99.90;;;;;;5132580;28;20499;-83
2021/08/06 12:34:23;;;;;;;4.07;2.78;;;22.60;99.90;;;;;;5133451;28;20135;-83
2021/08/06 12:36:56;;;;;;;4.57;2.80;;;22.90;99.90;;;;;;5132692;28;20051;-83
2021/08/06 12:39:23;;;;;;;9.18;3.25;;;23.10;99.90;;;;;;5131988;28;20043;-81
2021/08/06 12:41:53;;;;;;;4.50;3.10;;;23.30;99.90;;;;;;5129314;28;20074;-83
2021/08/06 12:44:28;;;;;;;11.05;3.03;;;23.20;99.90;;;;;;5129190;28;20079;-84
2021/08/06 12:46:57;;;;;;;5.43;3.42;;;23.30;99.90;;;;;;5129885;28;20070;-84
2021/08/06 12:49:26;;;;;;;5.15;3.30;;;23.40;99.90;;;;;;5126144;28;20078;-84
2021/08/06 12:51:59;;;;;;;5.53;3.25;;;23.60;99.90;;;;;;5125863;28;20053;-84
2021/08/06 12:54:46;;;;;;;7.68;3.15;;;23.80;99.90;;;;;;5125326;28;20079;-82
2021/08/06 12:57:14;;;;;;;4.18;2.95;;;24.00;99.90;;;;;;5123321;28;20055;-84
2021/08/06 12:59:45;;;;;;;6.05;3.65;;;24.00;99.90;;;;;;5139250;27;20124;-85
2021/08/06 13:02:22;;;;;;;3.97;3.20;;;24.00;99.90;;;;;;5150447;27;20054;-83
2021/08/06 13:04:51;;;;;;;4.28;3.00;;;23.80;99.90;;;;;;5150393;27;20044;-84
2021/08/06 13:07:25;;;;;;;4.40;3.35;;;23.80;99.90;;;;;;5150048;27;20438;-83